map of ELU home
ELU - Airport
Location
City:  El Oued, El Oued, Algeria
Name:Guemar
ICAO:DAUO
IATA:ELU

Details
Type:Airport (Aerodrome, Airfield)
Latitude:3330'47"N (33.513056)
Longitude:646'57"E (6.782500)
Elevation:203 ft (62 m)
Variation:1.64E (WMM2015 magnetic declination)
0.09 annual change
Runways:2
Longest:9843 × 148 ft (3000 × 45 m), paved

Time
Time Zone:UTC+1
Local Time:

Weather
METAR:DAUO 131800Z 22002KT 9999 FEW040 13/04 Q1024

Related Locations
Nearby:
Farthest:GIS: 11832 mi / 19041 km
Gisborne, GIS, NZ

Find:

   beyond  
but within

Other Information
Maps:
NOTAMs:
Links:
Sources:

  
flag of Algeria   

Sectional Chart

Flight Planning
at skyvector.com

Satellite Image

Google Maps Satellite view

 

Copyright © 2004-2017 Karl L. Swartz. All rights reserved.
The Great Circle Mapper name and logo are trademarks of the Great Circle Mapper.
All other trademarks mentioned herein belong to their respective owners.
Please see credits for attibutions and further copyright information.

  Follow gcmap on Facebook Follow gcmap on Twitter Follow gcmap on Google+ GCmap on LinkedIn

hCard Microformat

Geo Microformat